Point Edward, Canada
Current Conditions -  °F | °C
As of 12:16 AM on Sunday 21 Dec 2014 (Local Time) from CYZR Reporting Station
Haze Haze  
Wind Chill: 27°   Ceiling: 3000
Heat Index: 27°   Visibility: 6mi
Dew Point: 21°   Wind: 3mph
Humidity: 80%   Direction: 180°S
Pressure: 30.27"   Gusts: NA
Location:  43°N, 82.41°W
Report Text: CYZR 210516Z AUTO 18003KT 6SM HZ OVC030 M03/M06 A3027 RMK SLP260
Loading
Personal Weather Stations






























Interactive Weather Map New forecast layout! Learn more

10-Day Weather Forecast

Advertisements
Track Severe Weather on mobile